createdAt,value
2023-03-24T00:00:51.455Z,14.93
2023-03-24T00:03:20.147Z,17.95
2023-03-24T00:05:59.370Z,14.20
2023-03-24T00:08:31.008Z,11.30
2023-03-24T00:11:02.731Z,13.75
2023-03-24T00:13:33.044Z,11.95
2023-03-24T00:16:02.643Z,15.40
2023-03-24T00:18:33.215Z,12.07
2023-03-24T00:21:01.713Z,11.70
2023-03-24T00:23:33.395Z,11.10
2023-03-24T00:26:07.267Z,15.73
2023-03-24T00:28:37.094Z,12.32
2023-03-24T00:31:06.744Z,14.80
2023-03-24T00:33:35.325Z,13.02
2023-03-24T00:36:05.803Z,12.80
2023-03-24T00:38:37.448Z,10.43
2023-03-24T00:41:07.893Z,10.45
2023-03-24T00:43:35.912Z,12.38
2023-03-24T00:46:09.335Z,11.40
2023-03-24T00:48:38.587Z,11.20
2023-03-24T00:51:11.268Z,14.55
2023-03-24T00:56:12.084Z,10.80
2023-03-24T00:58:39.376Z,14.32
2023-03-24T01:01:07.366Z,13.07
2023-03-24T01:03:35.520Z,11.10
2023-03-24T01:06:05.315Z,13.18
2023-03-24T01:08:32.857Z,11.70
2023-03-24T01:11:01.585Z,13.98
2023-03-24T01:13:30.024Z,13.43
2023-03-24T01:15:58.760Z,10.57
2023-03-24T01:18:28.141Z,16.10
2023-03-24T01:20:55.751Z,9.63
2023-03-24T01:23:26.154Z,11.18
2023-03-24T01:25:54.732Z,8.57
2023-03-24T01:28:25.264Z,13.95
2023-03-24T01:30:55.561Z,11.70
2023-03-24T01:33:23.148Z,10.77
2023-03-24T01:35:51.003Z,11.00
2023-03-24T01:38:18.862Z,12.43
2023-03-24T01:40:47.529Z,13.25
2023-03-24T01:43:23.245Z,12.93
2023-03-24T01:46:21.655Z,11.73
2023-03-24T01:48:56.954Z,12.05
2023-03-24T01:51:44.109Z,11.57
2023-03-24T01:54:17.826Z,10.05
2023-03-24T01:56:50.884Z,10.80
2023-03-24T01:59:27.690Z,10.10
2023-03-24T02:02:15.125Z,11.75
2023-03-24T02:05:05.013Z,10.18
2023-03-24T02:08:04.909Z,12.02
2023-03-24T02:10:35.641Z,11.70
2023-03-24T02:13:04.856Z,11.35
2023-03-24T02:15:35.784Z,10.77
2023-03-24T02:18:03.261Z,11.90
2023-03-24T02:20:59.110Z,7.57
2023-03-24T02:23:44.660Z,10.30
2023-03-24T02:26:14.717Z,11.18
2023-03-24T02:29:23.727Z,12.00
2023-03-24T02:32:35.554Z,9.55
2023-03-24T02:35:34.487Z,9.50
2023-03-24T02:38:07.839Z,9.98
2023-03-24T02:40:36.708Z,11.25
2023-03-24T02:43:17.484Z,9.65
2023-03-24T02:45:52.817Z,13.48
2023-03-24T02:48:23.699Z,9.25
2023-03-24T02:50:55.046Z,9.63
2023-03-24T02:53:51.114Z,10.02
2023-03-24T02:56:56.229Z,10.07
2023-03-24T03:00:00.599Z,11.80
2023-03-24T03:03:07.748Z,11.88
2023-03-24T03:05:41.150Z,11.70
2023-03-24T03:08:12.942Z,12.88
2023-03-24T03:10:47.427Z,10.23
2023-03-24T03:13:31.276Z,12.35
2023-03-24T03:16:03.361Z,11.98
2023-03-24T03:18:57.516Z,10.38
2023-03-24T03:21:28.595Z,11.88
2023-03-24T03:24:04.374Z,8.70
2023-03-24T03:26:33.506Z,12.27
2023-03-24T03:29:09.493Z,11.27
2023-03-24T03:31:44.422Z,11.13
2023-03-24T03:34:38.034Z,13.38
2023-03-24T03:37:08.749Z,12.50
2023-03-24T03:39:45.694Z,13.65
2023-03-24T03:42:15.067Z,13.20
2023-03-24T03:44:42.870Z,13.98
2023-03-24T03:47:10.486Z,11.27
2023-03-24T03:49:44.716Z,12.85
2023-03-24T03:52:13.889Z,14.70
2023-03-24T03:54:43.702Z,14.32
2023-03-24T03:57:13.616Z,12.32
2023-03-24T04:00:16.674Z,10.40
2023-03-24T04:03:33.500Z,11.85
2023-03-24T04:06:25.568Z,11.55
2023-03-24T04:09:19.677Z,10.30
2023-03-24T04:11:53.662Z,14.07
2023-03-24T04:14:57.302Z,11.85
2023-03-24T04:18:14.812Z,12.23
2023-03-24T04:21:02.515Z,10.90
2023-03-24T04:23:50.814Z,11.60
2023-03-24T04:26:26.342Z,15.35
2023-03-24T04:29:05.338Z,10.75
2023-03-24T04:31:38.690Z,10.50
2023-03-24T04:34:31.258Z,10.60
2023-03-24T04:37:33.162Z,10.32
2023-03-24T04:40:11.224Z,8.93
2023-03-24T04:42:45.711Z,11.63
2023-03-24T04:45:15.170Z,13.32
2023-03-24T04:48:13.721Z,12.23
2023-03-24T04:50:58.044Z,10.77
2023-03-24T04:53:29.679Z,11.13
2023-03-24T04:56:27.865Z,11.35
2023-03-24T04:59:21.694Z,9.25
2023-03-24T05:01:52.087Z,11.05
2023-03-24T05:04:40.438Z,10.50
2023-03-24T05:07:37.123Z,9.63
2023-03-24T05:10:09.870Z,10.50
2023-03-24T05:12:45.262Z,9.65
2023-03-24T05:15:41.508Z,9.85
2023-03-24T05:18:29.109Z,9.35
2023-03-24T05:20:57.848Z,8.88
2023-03-24T05:23:26.237Z,9.02
2023-03-24T05:25:55.568Z,10.68
2023-03-24T05:28:25.186Z,9.98
2023-03-24T05:30:55.152Z,11.15
2023-03-24T05:34:01.283Z,9.18
2023-03-24T05:36:30.026Z,9.02
2023-03-24T05:38:59.836Z,7.97
2023-03-24T05:41:38.730Z,9.10
2023-03-24T05:44:06.538Z,9.02
2023-03-24T05:46:33.974Z,10.15
2023-03-24T05:49:04.733Z,9.70
2023-03-24T05:51:35.702Z,9.32
2023-03-24T05:54:06.568Z,8.52
2023-03-24T05:56:43.342Z,11.98
2023-03-24T05:59:34.452Z,10.27
2023-03-24T06:02:28.199Z,10.63
2023-03-24T06:05:02.039Z,7.95
2023-03-24T06:07:31.028Z,10.07
2023-03-24T06:10:03.354Z,8.95
2023-03-24T06:12:39.724Z,9.13
2023-03-24T06:15:08.871Z,9.48
2023-03-24T06:17:37.924Z,10.48
2023-03-24T06:20:16.156Z,10.30
2023-03-24T06:23:00.035Z,8.73
2023-03-24T06:25:36.537Z,10.65
2023-03-24T06:28:15.556Z,12.73
2023-03-24T06:30:46.934Z,8.73
2023-03-24T06:33:22.551Z,9.57
2023-03-24T06:35:54.557Z,10.25
2023-03-24T06:38:22.705Z,9.93
2023-03-24T06:40:50.193Z,9.55
2023-03-24T06:43:17.833Z,11.52
2023-03-24T06:45:46.784Z,9.43
2023-03-24T06:48:22.055Z,7.15
2023-03-24T06:50:52.377Z,10.00
2023-03-24T06:53:22.246Z,9.48
2023-03-24T06:55:51.264Z,8.25
2023-03-24T06:58:20.877Z,10.50
2023-03-24T07:01:18.120Z,10.70
2023-03-24T07:04:08.810Z,9.73
2023-03-24T07:07:12.475Z,5.68
2023-03-24T07:09:48.733Z,7.70
2023-03-24T07:12:16.186Z,8.13
2023-03-24T07:14:44.138Z,9.60
2023-03-24T07:17:13.166Z,8.55
2023-03-24T07:19:58.483Z,9.23
2023-03-24T07:22:45.748Z,7.80
2023-03-24T07:25:31.106Z,11.10
2023-03-24T07:28:16.036Z,8.50
2023-03-24T07:30:43.702Z,8.50
2023-03-24T07:33:12.929Z,8.25
2023-03-24T07:35:45.148Z,7.90
2023-03-24T07:38:12.740Z,8.07
2023-03-24T07:40:40.484Z,10.15
2023-03-24T07:43:08.230Z,7.90
2023-03-24T07:45:47.930Z,8.38
2023-03-24T07:48:16.553Z,9.27
2023-03-24T07:50:44.863Z,7.28
2023-03-24T07:53:35.599Z,7.50
2023-03-24T07:56:03.704Z,11.27
2023-03-24T07:58:31.808Z,10.60
2023-03-24T08:01:19.291Z,8.18
2023-03-24T08:03:55.209Z,8.40
2023-03-24T08:09:14.939Z,6.78
2023-03-24T08:11:42.410Z,9.35
2023-03-24T08:14:13.056Z,9.10
2023-03-24T08:16:40.518Z,8.50
2023-03-24T08:19:08.518Z,8.57
2023-03-24T08:21:37.310Z,8.95
2023-03-24T08:24:07.078Z,7.72
2023-03-24T08:26:35.628Z,6.80
2023-03-24T08:29:04.018Z,7.97
2023-03-24T08:31:38.795Z,8.25
2023-03-24T08:34:11.954Z,7.05
2023-03-24T08:36:39.390Z,7.63
2023-03-24T08:39:10.462Z,7.50
2023-03-24T08:41:38.275Z,6.65
2023-03-24T08:44:07.182Z,8.23
2023-03-24T08:46:35.239Z,8.13
2023-03-24T08:49:03.106Z,8.38
2023-03-24T08:51:34.099Z,7.22
2023-03-24T08:54:04.142Z,8.10
2023-03-24T08:56:32.237Z,11.35
2023-03-24T08:58:59.646Z,10.93
2023-03-24T09:01:27.619Z,10.77
2023-03-24T09:03:58.948Z,8.45
2023-03-24T09:06:27.605Z,8.65
2023-03-24T09:08:56.186Z,9.85
2023-03-24T09:11:24.259Z,7.55
2023-03-24T09:13:51.708Z,8.43
2023-03-24T09:16:19.571Z,11.10
2023-03-24T09:18:48.145Z,8.27
2023-03-24T09:21:15.806Z,9.88
2023-03-24T09:23:44.925Z,8.07
2023-03-24T09:26:12.475Z,8.63
2023-03-24T09:28:40.105Z,7.78
2023-03-24T09:31:07.785Z,8.63
2023-03-24T09:33:35.919Z,9.48
2023-03-24T09:36:05.585Z,6.95
2023-03-24T09:38:35.829Z,7.20
2023-03-24T09:41:06.134Z,6.00
2023-03-24T09:43:40.720Z,8.27
2023-03-24T09:46:16.908Z,8.27
2023-03-24T09:48:51.568Z,7.25
2023-03-24T09:51:34.890Z,7.03
2023-03-24T09:54:45.293Z,6.93
2023-03-24T09:57:23.945Z,7.25
2023-03-24T09:59:52.095Z,6.32
2023-03-24T10:02:21.802Z,7.97
2023-03-24T10:04:51.110Z,8.18
2023-03-24T10:07:37.970Z,8.32
2023-03-24T10:10:19.907Z,6.50
2023-03-24T10:12:50.125Z,7.13
2023-03-24T10:15:37.945Z,8.35
2023-03-24T10:18:24.331Z,8.32
2023-03-24T10:21:00.718Z,7.35
2023-03-24T10:24:03.033Z,7.15
2023-03-24T10:26:46.480Z,7.32
2023-03-24T10:29:24.943Z,8.65
2023-03-24T10:32:13.178Z,6.43
2023-03-24T10:34:45.750Z,6.32
2023-03-24T10:37:16.672Z,8.13
2023-03-24T10:39:45.506Z,7.63
2023-03-24T10:42:19.949Z,6.47
2023-03-24T10:44:50.510Z,6.43
2023-03-24T10:47:27.171Z,5.03
2023-03-24T10:49:57.075Z,5.35
2023-03-24T10:52:25.793Z,4.40
2023-03-24T10:54:59.902Z,6.03
2023-03-24T10:57:27.949Z,6.28
2023-03-24T11:00:01.064Z,7.43
2023-03-24T11:02:34.787Z,6.38
2023-03-24T11:05:15.984Z,6.47
2023-03-24T11:07:46.944Z,8.88
2023-03-24T11:10:17.814Z,6.47
2023-03-24T11:12:54.574Z,7.95
2023-03-24T11:15:29.475Z,6.53
2023-03-24T11:18:07.631Z,5.38
2023-03-24T11:20:40.999Z,6.80
2023-03-24T11:23:22.365Z,5.40
2023-03-24T11:26:16.864Z,6.93
2023-03-24T11:29:10.390Z,6.20
2023-03-24T11:31:39.749Z,4.80
2023-03-24T11:34:20.634Z,4.38
2023-03-24T11:36:54.802Z,4.25
2023-03-24T11:39:34.869Z,4.63
2023-03-24T11:42:13.113Z,4.50
2023-03-24T11:44:46.723Z,5.55
2023-03-24T11:47:36.802Z,4.93
2023-03-24T11:50:10.985Z,4.95
2023-03-24T11:52:57.968Z,4.15
2023-03-24T11:55:44.019Z,4.07
2023-03-24T11:58:28.528Z,5.75
2023-03-24T12:01:08.682Z,5.13
2023-03-24T12:04:04.717Z,7.07
2023-03-24T12:06:47.747Z,5.13
2023-03-24T12:09:34.667Z,5.63
2023-03-24T12:12:27.149Z,4.68
2023-03-24T12:15:27.160Z,3.53
2023-03-24T12:18:09.062Z,4.68
2023-03-24T12:20:44.921Z,4.18
2023-03-24T12:23:34.587Z,6.18
2023-03-24T12:26:32.503Z,5.55
2023-03-24T12:29:22.272Z,6.75
2023-03-24T12:32:17.946Z,4.88
2023-03-24T12:34:49.142Z,4.18
2023-03-24T12:37:27.049Z,4.35
2023-03-24T12:40:32.403Z,4.10
2023-03-24T12:43:11.844Z,3.45
2023-03-24T12:45:40.204Z,4.38
2023-03-24T12:48:43.336Z,3.47
2023-03-24T12:51:29.891Z,4.28
2023-03-24T12:54:26.269Z,2.97
2023-03-24T12:57:03.919Z,5.10
2023-03-24T12:59:58.353Z,5.05
2023-03-24T13:02:32.174Z,6.28
2023-03-24T13:05:09.374Z,4.47
2023-03-24T13:07:39.593Z,5.18
2023-03-24T13:10:20.749Z,6.55
2023-03-24T13:13:08.911Z,4.72
2023-03-24T13:15:52.679Z,5.28
2023-03-24T13:18:20.017Z,6.20
2023-03-24T13:20:52.819Z,5.43
2023-03-24T13:23:46.518Z,5.05
2023-03-24T13:26:40.138Z,4.30
2023-03-24T13:29:49.149Z,5.85
2023-03-24T13:32:20.781Z,3.88
2023-03-24T13:35:26.734Z,7.20
2023-03-24T13:38:14.649Z,4.18
2023-03-24T13:40:44.383Z,5.22
2023-03-24T13:43:30.715Z,4.10
2023-03-24T13:46:03.638Z,4.95
2023-03-24T13:48:42.539Z,5.35
2023-03-24T13:51:28.030Z,5.75
2023-03-24T13:54:27.554Z,5.35
2023-03-24T13:57:08.165Z,4.72
2023-03-24T13:59:41.941Z,6.30
2023-03-24T14:02:30.133Z,4.72
2023-03-24T14:05:40.774Z,6.35
2023-03-24T14:08:15.149Z,4.90
2023-03-24T14:10:50.779Z,6.32
2023-03-24T14:13:19.388Z,5.57
2023-03-24T14:15:50.738Z,4.97
2023-03-24T14:18:24.833Z,6.32
2023-03-24T14:20:58.737Z,5.20
2023-03-24T14:23:38.742Z,5.45
2023-03-24T14:26:14.683Z,7.00
2023-03-24T14:28:47.730Z,4.75
2023-03-24T14:31:16.867Z,4.93
2023-03-24T14:33:55.771Z,6.38
2023-03-24T14:36:30.999Z,6.15
2023-03-24T14:39:07.646Z,6.28
2023-03-24T14:41:39.656Z,5.20
2023-03-24T14:44:08.516Z,7.28
2023-03-24T14:46:38.689Z,5.07
2023-03-24T14:49:12.313Z,5.82
2023-03-24T14:52:25.041Z,4.60
2023-03-24T14:54:58.989Z,5.73
2023-03-24T14:57:41.636Z,9.00
2023-03-24T15:00:32.090Z,7.07
2023-03-24T15:03:11.998Z,6.72
2023-03-24T15:05:39.646Z,6.72
2023-03-24T15:08:21.732Z,5.68
2023-03-24T15:10:52.966Z,6.30
2023-03-24T15:13:41.911Z,5.93
2023-03-24T15:16:12.715Z,5.80
2023-03-24T15:19:05.515Z,6.47
2023-03-24T15:21:42.392Z,7.40
2023-03-24T15:24:22.661Z,7.63
2023-03-24T15:26:55.844Z,6.90
2023-03-24T15:29:24.266Z,6.85
2023-03-24T15:31:53.629Z,5.63
2023-03-24T15:34:51.265Z,6.63
2023-03-24T15:37:40.677Z,6.50
2023-03-24T15:40:31.886Z,6.35
2023-03-24T15:43:01.961Z,7.53
2023-03-24T15:45:33.341Z,5.80
2023-03-24T15:48:20.347Z,6.75
2023-03-24T15:51:01.172Z,7.28
2023-03-24T15:54:01.675Z,9.15
2023-03-24T15:56:32.019Z,6.72
2023-03-24T15:59:16.005Z,6.80
2023-03-24T16:01:45.476Z,6.13
2023-03-24T16:04:19.817Z,6.50
2023-03-24T16:06:54.396Z,6.13
2023-03-24T16:09:28.161Z,6.60
2023-03-24T16:11:56.219Z,7.57
2023-03-24T16:14:29.207Z,7.13
2023-03-24T16:16:59.347Z,6.13
2023-03-24T16:19:27.544Z,7.05
2023-03-24T16:21:55.865Z,6.47
2023-03-24T16:24:23.734Z,10.50
2023-03-24T16:26:51.281Z,11.43
2023-03-24T16:29:22.336Z,10.38
2023-03-24T16:31:52.174Z,12.43
2023-03-24T16:34:21.332Z,10.73
2023-03-24T16:36:50.263Z,11.93
2023-03-24T16:39:29.259Z,8.52
2023-03-24T16:41:56.948Z,11.00
2023-03-24T16:44:25.016Z,9.10
2023-03-24T16:46:54.186Z,8.77
2023-03-24T16:49:23.108Z,8.60
2023-03-24T16:51:51.162Z,10.05
2023-03-24T16:54:20.108Z,9.82
2023-03-24T16:56:47.660Z,10.65
2023-03-24T16:59:15.894Z,15.15
2023-03-24T17:01:46.362Z,15.02
2023-03-24T17:04:21.390Z,16.60
2023-03-24T17:06:53.587Z,12.95
2023-03-24T17:09:21.792Z,11.80
2023-03-24T17:11:52.424Z,14.05
2023-03-24T17:14:19.822Z,10.82
2023-03-24T17:16:49.454Z,9.95
2023-03-24T17:19:19.476Z,8.93
2023-03-24T17:22:05.098Z,9.57
2023-03-24T17:24:36.921Z,9.20
2023-03-24T17:27:10.469Z,11.15
2023-03-24T17:29:38.024Z,8.77
2023-03-24T17:32:05.899Z,10.55
2023-03-24T17:34:33.097Z,12.27
2023-03-24T17:37:01.062Z,11.85
2023-03-24T17:39:28.220Z,8.32
2023-03-24T17:42:01.348Z,8.93
2023-03-24T17:44:28.767Z,8.45
2023-03-24T17:46:56.213Z,8.90
2023-03-24T17:49:23.605Z,7.80
2023-03-24T17:51:50.737Z,10.82
2023-03-24T17:54:20.595Z,11.38
2023-03-24T17:56:47.589Z,8.95
2023-03-24T17:59:15.023Z,9.10
2023-03-24T18:01:42.327Z,9.10
2023-03-24T18:04:09.642Z,8.48
2023-03-24T18:06:38.780Z,7.97
2023-03-24T18:09:06.910Z,8.45
2023-03-24T18:11:34.111Z,27.02
2023-03-24T18:14:03.584Z,20.00
2023-03-24T18:16:31.258Z,17.83
2023-03-24T18:19:00.713Z,18.23
2023-03-24T18:21:28.835Z,19.13
2023-03-24T18:23:56.720Z,16.80
2023-03-24T18:26:24.058Z,17.00
2023-03-24T18:28:51.784Z,19.15
2023-03-24T18:31:21.565Z,16.27
2023-03-24T18:33:51.280Z,17.73
2023-03-24T18:36:26.656Z,19.58
2023-03-24T18:39:04.551Z,26.95
2023-03-24T18:41:32.680Z,24.98
2023-03-24T18:43:59.931Z,20.92
2023-03-24T18:46:27.743Z,15.65
2023-03-24T18:48:55.717Z,13.05
2023-03-24T18:51:25.697Z,12.35
2023-03-24T18:53:53.290Z,10.88
2023-03-24T18:56:23.504Z,13.10
2023-03-24T18:58:52.544Z,10.95
2023-03-24T19:01:23.250Z,10.40
2023-03-24T19:03:52.066Z,8.07
2023-03-24T19:06:20.021Z,9.07
2023-03-24T19:08:51.861Z,9.02
2023-03-24T19:11:19.544Z,9.00
2023-03-24T19:13:49.993Z,10.35
2023-03-24T19:16:19.448Z,9.10
2023-03-24T19:18:48.788Z,8.93
2023-03-24T19:21:17.277Z,10.35
2023-03-24T19:23:47.023Z,9.27
2023-03-24T19:26:16.757Z,10.63
2023-03-24T19:28:44.493Z,12.55
2023-03-24T19:31:15.376Z,10.27
2023-03-24T19:33:43.099Z,16.00
2023-03-24T19:36:13.517Z,10.90
2023-03-24T19:38:40.753Z,11.95
2023-03-24T19:41:10.797Z,12.77
2023-03-24T19:43:38.286Z,12.57
2023-03-24T19:46:07.279Z,12.00
2023-03-24T19:48:35.183Z,11.20
2023-03-24T19:51:02.869Z,10.15
2023-03-24T19:53:30.126Z,13.70
2023-03-24T19:55:58.517Z,11.07
2023-03-24T19:58:26.263Z,11.70
2023-03-24T20:00:53.973Z,9.80
2023-03-24T20:03:21.536Z,14.00
2023-03-24T20:05:50.379Z,9.88
2023-03-24T20:08:19.376Z,12.63
2023-03-24T20:10:47.217Z,8.55
2023-03-24T20:13:14.588Z,6.43
2023-03-24T20:15:41.920Z,9.63
2023-03-24T20:18:10.693Z,9.70
2023-03-24T20:20:38.257Z,9.48
2023-03-24T20:23:05.670Z,8.80
2023-03-24T20:25:32.878Z,10.25
2023-03-24T20:27:59.954Z,8.38
2023-03-24T20:30:31.587Z,8.50
2023-03-24T20:32:59.105Z,7.80
2023-03-24T20:35:28.412Z,7.25
2023-03-24T20:37:55.586Z,10.10
2023-03-24T20:40:26.685Z,8.70
2023-03-24T20:42:54.320Z,7.20
2023-03-24T20:45:21.633Z,10.75
2023-03-24T20:47:48.934Z,7.97
2023-03-24T20:50:16.379Z,9.48
2023-03-24T20:52:43.396Z,9.40
2023-03-24T20:55:11.747Z,9.75
2023-03-24T20:57:39.176Z,9.45
2023-03-24T21:00:14.413Z,8.10
2023-03-24T21:02:43.145Z,9.60
2023-03-24T21:05:11.240Z,9.23
2023-03-24T21:07:39.150Z,9.65
2023-03-24T21:10:07.044Z,9.45
2023-03-24T21:12:35.047Z,9.20
2023-03-24T21:15:02.566Z,9.82
2023-03-24T21:17:32.921Z,9.07
2023-03-24T21:20:12.843Z,11.70
2023-03-24T21:22:56.006Z,7.47
2023-03-24T21:25:29.135Z,7.22
2023-03-24T21:27:57.724Z,8.02
2023-03-24T21:30:27.372Z,11.30
2023-03-24T21:32:56.785Z,12.68
2023-03-24T21:35:25.552Z,10.68
2023-03-24T21:37:54.063Z,8.45
2023-03-24T21:40:24.229Z,8.13
2023-03-24T21:42:53.435Z,9.48
2023-03-24T21:45:23.587Z,8.07
2023-03-24T21:47:51.550Z,10.27
2023-03-24T21:50:23.529Z,12.73
2023-03-24T21:52:54.853Z,11.05
2023-03-24T21:55:23.248Z,13.05
2023-03-24T21:57:51.292Z,14.85
2023-03-24T22:00:21.611Z,10.93
2023-03-24T22:02:51.424Z,11.45
2023-03-24T22:05:23.730Z,13.07
2023-03-24T22:07:52.877Z,11.43
2023-03-24T22:10:24.797Z,11.25
2023-03-24T22:12:54.007Z,12.98
2023-03-24T22:15:21.798Z,12.07
2023-03-24T22:17:50.602Z,14.63
2023-03-24T22:20:17.893Z,12.27
2023-03-24T22:22:45.724Z,11.68
2023-03-24T22:25:15.687Z,12.60
2023-03-24T22:27:43.238Z,11.52
2023-03-24T22:30:13.045Z,9.35
2023-03-24T22:32:41.350Z,9.70
2023-03-24T22:35:09.348Z,9.98
2023-03-24T22:37:37.009Z,10.63
2023-03-24T22:40:05.959Z,13.27
2023-03-24T22:42:33.448Z,10.75
2023-03-24T22:45:00.761Z,8.65
2023-03-24T22:47:29.187Z,10.05
2023-03-24T22:49:56.979Z,9.20
2023-03-24T22:52:24.370Z,11.98
2023-03-24T22:54:51.620Z,10.20
2023-03-24T22:57:19.264Z,9.82
2023-03-24T22:59:46.455Z,10.30
2023-03-24T23:02:14.092Z,9.65
2023-03-24T23:04:42.542Z,11.30
2023-03-24T23:07:10.382Z,9.65
2023-03-24T23:09:38.848Z,9.40
2023-03-24T23:12:07.160Z,11.10
2023-03-24T23:14:34.848Z,9.55
2023-03-24T23:17:02.350Z,9.32
2023-03-24T23:19:33.446Z,7.75
2023-03-24T23:22:00.987Z,8.40
2023-03-24T23:24:29.141Z,10.23
2023-03-24T23:26:57.082Z,8.45
2023-03-24T23:29:24.303Z,9.82
2023-03-24T23:31:51.619Z,7.35
2023-03-24T23:34:19.338Z,9.07
2023-03-24T23:36:50.758Z,11.10
2023-03-24T23:39:18.489Z,9.50
2023-03-24T23:41:46.869Z,9.70
2023-03-24T23:44:15.103Z,7.82
2023-03-24T23:46:44.961Z,8.77
2023-03-24T23:49:12.091Z,9.25
2023-03-24T23:51:39.239Z,9.13
2023-03-24T23:54:06.476Z,9.63
2023-03-24T23:56:37.187Z,8.18
2023-03-24T23:59:08.330Z,8.43
